createdAt,value
2017-06-20T00:00:22.731Z,18.90
2017-06-20T00:02:51.787Z,18.80
2017-06-20T00:05:20.083Z,18.80
2017-06-20T00:07:49.287Z,18.90
2017-06-20T00:10:18.367Z,18.80
2017-06-20T00:12:46.711Z,18.80
2017-06-20T00:15:14.995Z,18.70
2017-06-20T00:17:43.307Z,18.70
2017-06-20T00:20:11.733Z,18.70
2017-06-20T00:22:40.011Z,18.80
2017-06-20T00:25:08.335Z,18.70
2017-06-20T00:27:36.620Z,18.60
2017-06-20T00:30:04.940Z,18.60
2017-06-20T00:32:33.319Z,18.60
2017-06-20T00:35:01.651Z,18.70
2017-06-20T00:37:29.937Z,18.60
2017-06-20T00:39:58.224Z,18.50
2017-06-20T00:42:26.550Z,18.50
2017-06-20T00:44:54.844Z,18.60
2017-06-20T00:47:23.128Z,18.60
2017-06-20T00:49:51.455Z,18.60
2017-06-20T00:52:19.836Z,18.60
2017-06-20T00:54:48.172Z,18.70
2017-06-20T00:57:16.457Z,18.70
2017-06-20T00:59:44.741Z,18.70
2017-06-20T01:02:13.763Z,18.70
2017-06-20T01:04:42.038Z,18.60
2017-06-20T01:07:11.138Z,18.50
2017-06-20T01:09:40.338Z,18.50
2017-06-20T01:12:08.617Z,18.50
2017-06-20T01:14:37.671Z,18.40
2017-06-20T01:17:06.079Z,18.30
2017-06-20T01:19:34.367Z,18.30
2017-06-20T01:22:03.462Z,18.20
2017-06-20T01:24:32.521Z,18.20
2017-06-20T01:27:00.924Z,18.10
2017-06-20T01:29:29.307Z,18.10
2017-06-20T01:31:58.400Z,18.10
2017-06-20T01:34:26.687Z,18.00
2017-06-20T01:36:55.901Z,18.00
2017-06-20T01:39:24.182Z,18.00
2017-06-20T01:41:52.467Z,18.00
2017-06-20T01:44:20.804Z,17.90
2017-06-20T01:46:49.188Z,17.90
2017-06-20T01:49:18.280Z,17.70
2017-06-20T01:51:47.383Z,17.70
2017-06-20T01:54:16.443Z,17.70
2017-06-20T01:56:44.735Z,17.70
2017-06-20T01:59:13.060Z,17.80
2017-06-20T02:01:41.387Z,17.80
2017-06-20T02:04:09.779Z,17.80
2017-06-20T02:06:38.835Z,17.70
2017-06-20T02:09:07.251Z,17.70
2017-06-20T02:11:35.531Z,17.70
2017-06-20T02:14:03.815Z,17.60
2017-06-20T02:16:33.003Z,17.60
2017-06-20T02:19:01.384Z,17.60
2017-06-20T02:21:30.447Z,17.50
2017-06-20T02:23:58.815Z,17.50
2017-06-20T02:26:27.131Z,17.60
2017-06-20T02:28:55.417Z,17.50
2017-06-20T02:31:24.511Z,17.50
2017-06-20T02:33:53.604Z,17.40
2017-06-20T02:36:22.795Z,17.40
2017-06-20T02:38:51.884Z,17.30
2017-06-20T02:41:20.991Z,17.30
2017-06-20T02:43:50.039Z,17.30
2017-06-20T02:46:18.332Z,17.20
2017-06-20T02:48:46.650Z,17.30
2017-06-20T02:51:15.003Z,17.30
2017-06-20T02:53:44.123Z,17.30
2017-06-20T02:56:12.416Z,17.30
2017-06-20T02:58:40.703Z,17.30
2017-06-20T03:01:09.032Z,17.30
2017-06-20T03:03:38.123Z,17.30
2017-06-20T03:06:06.503Z,17.30
2017-06-20T03:08:35.703Z,17.20
2017-06-20T03:11:13.561Z,17.10
2017-06-20T03:13:41.907Z,17.00
2017-06-20T03:16:10.258Z,17.10
2017-06-20T03:18:39.340Z,17.00
2017-06-20T03:21:07.675Z,17.00
2017-06-20T03:23:35.979Z,17.00
2017-06-20T03:26:05.004Z,17.10
2017-06-20T03:28:34.199Z,17.20
2017-06-20T03:31:03.267Z,17.20
2017-06-20T03:33:31.559Z,17.20
2017-06-20T03:35:59.887Z,17.20
2017-06-20T03:38:28.231Z,17.30
2017-06-20T03:40:56.519Z,17.40
2017-06-20T03:43:24.807Z,17.40
2017-06-20T03:45:53.145Z,17.50
2017-06-20T03:48:21.431Z,17.80
2017-06-20T03:50:49.719Z,18.00
2017-06-20T03:53:18.107Z,18.20
2017-06-20T03:55:47.207Z,18.60
2017-06-20T03:58:16.311Z,18.80
2017-06-20T04:00:45.423Z,19.00
2017-06-20T04:03:13.719Z,19.00
2017-06-20T04:05:42.053Z,19.10
2017-06-20T04:08:11.168Z,19.40
2017-06-20T04:10:39.814Z,19.30
2017-06-20T04:13:08.106Z,19.30
2017-06-20T04:15:37.207Z,19.40
2017-06-20T04:18:06.379Z,19.20
2017-06-20T04:20:34.679Z,19.20
2017-06-20T04:23:03.779Z,19.50
2017-06-20T04:25:32.839Z,19.50
2017-06-20T04:28:01.128Z,19.50
2017-06-20T04:30:29.463Z,19.70
2017-06-20T04:32:57.763Z,19.80
2017-06-20T04:35:26.151Z,19.90
2017-06-20T04:37:54.540Z,19.90
2017-06-20T04:40:23.635Z,20.30
2017-06-20T04:42:52.827Z,20.50
2017-06-20T04:45:21.156Z,20.40
2017-06-20T04:47:49.444Z,20.60
2017-06-20T04:50:17.867Z,20.80
2017-06-20T04:52:46.935Z,21.20
2017-06-20T04:55:15.227Z,21.20
2017-06-20T04:57:43.619Z,21.40
2017-06-20T05:00:12.720Z,21.80
2017-06-20T05:02:41.811Z,22.10
2017-06-20T05:05:11.015Z,22.40
2017-06-20T05:07:40.104Z,22.60
2017-06-20T05:10:09.311Z,22.70
2017-06-20T05:12:38.367Z,22.70
2017-06-20T05:15:06.707Z,22.70
2017-06-20T05:17:35.055Z,22.80
2017-06-20T05:20:04.119Z,22.90
2017-06-20T05:22:32.464Z,22.90
2017-06-20T05:25:00.798Z,23.10
2017-06-20T05:27:29.898Z,23.40
2017-06-20T05:29:59.097Z,23.60
2017-06-20T05:32:28.156Z,23.60
2017-06-20T05:34:56.482Z,23.60
2017-06-20T05:37:24.843Z,23.80
2017-06-20T05:39:53.903Z,24.00
2017-06-20T05:42:22.197Z,24.00
2017-06-20T05:44:50.538Z,24.20
2017-06-20T05:47:18.982Z,24.40
2017-06-20T05:49:47.260Z,24.50
2017-06-20T05:52:15.598Z,24.80
2017-06-20T05:54:43.880Z,25.10
2017-06-20T05:57:12.933Z,25.50
2017-06-20T05:59:41.253Z,25.50
2017-06-20T06:02:09.563Z,25.80
2017-06-20T06:04:37.956Z,26.00
2017-06-20T06:07:06.243Z,26.00
2017-06-20T06:09:35.307Z,25.80
2017-06-20T06:12:03.706Z,25.80
2017-06-20T06:14:32.083Z,25.80
2017-06-20T06:17:00.367Z,25.70
2017-06-20T06:19:29.460Z,26.00
2017-06-20T06:21:58.523Z,26.00
2017-06-20T06:24:26.935Z,25.90
2017-06-20T06:26:55.315Z,26.00
2017-06-20T06:29:24.395Z,26.30
2017-06-20T06:31:52.783Z,26.30
2017-06-20T06:34:21.163Z,26.30
2017-06-20T06:36:49.450Z,26.50
2017-06-20T06:39:18.541Z,26.80
2017-06-20T06:41:47.732Z,26.90
2017-06-20T06:44:16.819Z,27.00
2017-06-20T06:46:46.019Z,27.00
2017-06-20T06:49:15.135Z,26.90
2017-06-20T06:51:43.492Z,26.90
2017-06-20T06:54:11.852Z,27.10
2017-06-20T06:56:40.167Z,27.30
2017-06-20T06:59:09.222Z,27.40
2017-06-20T07:01:37.540Z,27.40
2017-06-20T07:04:05.895Z,27.50
2017-06-20T07:06:34.175Z,27.60
2017-06-20T07:09:03.268Z,28.00
2017-06-20T07:11:31.596Z,27.90
2017-06-20T07:13:59.920Z,28.00
2017-06-20T07:16:28.304Z,28.10
2017-06-20T07:18:56.642Z,28.10
2017-06-20T07:21:24.959Z,28.10
2017-06-20T07:23:54.014Z,28.30
2017-06-20T07:26:22.432Z,28.20
2017-06-20T07:28:50.711Z,28.10
2017-06-20T07:31:19.808Z,28.30
2017-06-20T07:33:49.004Z,28.30
2017-06-20T07:36:17.323Z,28.30
2017-06-20T07:38:45.656Z,28.40
2017-06-20T07:41:13.995Z,28.50
2017-06-20T07:43:42.279Z,28.80
2017-06-20T07:46:10.663Z,29.00
2017-06-20T07:48:38.995Z,29.20
2017-06-20T07:51:07.280Z,29.30
2017-06-20T07:53:35.631Z,29.20
2017-06-20T07:56:04.723Z,28.90
2017-06-20T07:58:33.007Z,28.90
2017-06-20T08:01:02.095Z,28.90
2017-06-20T08:03:30.476Z,28.90
2017-06-20T08:05:58.853Z,29.30
2017-06-20T08:08:27.231Z,29.50
2017-06-20T08:10:55.607Z,29.60
2017-06-20T08:13:23.987Z,29.70
2017-06-20T08:15:52.360Z,29.70
2017-06-20T08:18:20.743Z,29.30
2017-06-20T08:20:49.083Z,29.20
2017-06-20T08:23:17.395Z,29.30
2017-06-20T08:25:45.778Z,29.50
2017-06-20T08:28:14.159Z,29.50
2017-06-20T08:30:42.539Z,29.40
2017-06-20T08:33:10.907Z,29.10
2017-06-20T08:35:39.259Z,29.30
2017-06-20T08:38:07.543Z,29.30
2017-06-20T08:40:36.754Z,29.00
2017-06-20T08:43:05.161Z,29.00
2017-06-20T08:45:33.544Z,29.10
2017-06-20T08:48:01.929Z,29.30
2017-06-20T08:50:31.028Z,29.20
2017-06-20T08:53:00.099Z,29.30
2017-06-20T08:55:28.418Z,29.30
2017-06-20T08:57:56.703Z,29.40
2017-06-20T09:00:25.045Z,29.20
2017-06-20T09:02:54.259Z,29.20
2017-06-20T09:05:23.355Z,28.90
2017-06-20T09:07:52.431Z,28.80
2017-06-20T09:10:20.811Z,28.80
2017-06-20T09:12:49.188Z,28.90
2017-06-20T09:15:17.566Z,29.10
2017-06-20T09:17:45.851Z,29.00
2017-06-20T09:20:14.937Z,28.80
2017-06-20T09:22:43.320Z,28.80
2017-06-20T09:25:11.697Z,28.90
2017-06-20T09:27:40.080Z,28.90
2017-06-20T09:30:08.455Z,29.10
2017-06-20T09:32:36.832Z,29.30
2017-06-20T09:35:05.119Z,29.40
2017-06-20T09:37:34.307Z,29.80
2017-06-20T09:40:02.689Z,29.70
2017-06-20T09:42:30.962Z,29.60
2017-06-20T09:44:59.292Z,29.70
2017-06-20T09:47:27.633Z,29.40
2017-06-20T09:49:56.008Z,29.50
2017-06-20T09:52:24.329Z,29.60
2017-06-20T09:54:52.651Z,29.40
2017-06-20T09:57:21.019Z,29.50
2017-06-20T09:59:50.207Z,30.10
2017-06-20T10:02:19.404Z,30.30
2017-06-20T10:04:47.784Z,30.30
2017-06-20T10:07:16.071Z,30.50
2017-06-20T10:09:45.256Z,29.80
2017-06-20T10:12:13.632Z,29.80
2017-06-20T10:14:41.911Z,29.80
2017-06-20T10:17:11.108Z,29.70
2017-06-20T10:19:39.487Z,29.60
2017-06-20T10:22:07.863Z,29.40
2017-06-20T10:24:36.243Z,29.30
2017-06-20T10:27:04.624Z,29.50
2017-06-20T10:29:32.959Z,29.80
2017-06-20T10:32:01.243Z,30.10
2017-06-20T10:34:29.518Z,30.50
2017-06-20T10:36:57.931Z,30.80
2017-06-20T10:39:26.259Z,30.60
2017-06-20T10:41:54.544Z,30.50
2017-06-20T10:44:22.863Z,30.40
2017-06-20T10:46:51.239Z,30.50
2017-06-20T10:49:19.519Z,30.50
2017-06-20T10:51:48.615Z,29.70
2017-06-20T10:54:16.995Z,29.70
2017-06-20T10:56:46.092Z,30.20
2017-06-20T10:59:14.380Z,30.20
2017-06-20T11:01:42.775Z,30.50
2017-06-20T11:04:11.055Z,30.40
2017-06-20T11:06:39.348Z,30.40
2017-06-20T11:09:08.447Z,30.30
2017-06-20T11:11:37.496Z,30.50
2017-06-20T11:14:05.802Z,30.40
2017-06-20T11:16:34.185Z,30.70
2017-06-20T11:19:02.458Z,30.60
2017-06-20T11:21:31.511Z,30.20
2017-06-20T11:23:59.851Z,30.20
2017-06-20T11:26:28.905Z,30.80
2017-06-20T11:28:57.192Z,30.70
2017-06-20T11:31:25.524Z,30.70
2017-06-20T11:33:53.855Z,30.40
2017-06-20T11:36:22.235Z,29.80
2017-06-20T11:38:51.435Z,30.30
2017-06-20T11:41:20.492Z,30.60
2017-06-20T11:43:48.780Z,30.60
2017-06-20T11:46:17.184Z,30.70
2017-06-20T11:48:46.291Z,30.60
2017-06-20T11:51:15.344Z,30.40
2017-06-20T11:53:43.653Z,30.30
2017-06-20T11:56:12.740Z,30.60
2017-06-20T11:58:41.126Z,30.60
2017-06-20T12:01:09.499Z,30.50
2017-06-20T12:03:37.884Z,30.40
2017-06-20T12:06:06.163Z,30.00
2017-06-20T12:08:35.251Z,29.60
2017-06-20T12:11:03.575Z,29.60
2017-06-20T12:13:31.907Z,29.40
2017-06-20T12:16:00.283Z,29.10
2017-06-20T12:18:28.569Z,29.20
2017-06-20T12:20:57.620Z,29.40
2017-06-20T12:23:26.044Z,29.40
2017-06-20T12:25:55.236Z,29.70
2017-06-20T12:28:23.611Z,29.70
2017-06-20T12:30:51.991Z,29.70
2017-06-20T12:33:20.335Z,29.70
2017-06-20T12:35:48.619Z,30.00
2017-06-20T12:38:16.923Z,30.40
2017-06-20T12:40:45.240Z,30.40
2017-06-20T12:43:14.293Z,30.40
2017-06-20T12:45:42.612Z,30.30
2017-06-20T12:48:11.692Z,30.10
2017-06-20T12:50:40.744Z,29.60
2017-06-20T12:53:09.851Z,29.70
2017-06-20T12:55:38.199Z,29.70
2017-06-20T12:58:07.246Z,30.10
2017-06-20T13:00:35.670Z,30.00
2017-06-20T13:03:04.048Z,30.20
2017-06-20T13:05:32.427Z,30.10
2017-06-20T13:08:00.747Z,29.90
2017-06-20T13:10:29.088Z,30.20
2017-06-20T13:12:58.279Z,30.30
2017-06-20T13:15:26.563Z,30.30
2017-06-20T13:17:54.935Z,29.90
2017-06-20T13:20:23.315Z,29.90
2017-06-20T13:22:51.600Z,30.00
2017-06-20T13:25:20.691Z,30.30
2017-06-20T13:27:49.783Z,30.30
2017-06-20T13:30:18.071Z,30.20
2017-06-20T13:32:47.254Z,30.40
2017-06-20T13:35:15.540Z,30.40
2017-06-20T13:37:44.735Z,30.40
2017-06-20T13:40:13.017Z,30.40
2017-06-20T13:42:42.104Z,30.00
2017-06-20T13:45:10.424Z,29.90
2017-06-20T13:47:38.779Z,29.50
2017-06-20T13:50:07.040Z,29.30
2017-06-20T13:52:36.119Z,29.30
2017-06-20T13:55:04.500Z,29.30
2017-06-20T13:57:33.591Z,29.00
2017-06-20T14:00:01.876Z,29.00
2017-06-20T14:02:30.984Z,29.30
2017-06-20T14:05:00.064Z,29.40
2017-06-20T14:07:29.115Z,29.50
2017-06-20T14:09:57.456Z,29.50
2017-06-20T14:12:25.739Z,29.50
2017-06-20T14:14:54.023Z,29.30
2017-06-20T14:17:22.471Z,29.00
2017-06-20T14:19:51.559Z,28.70
2017-06-20T14:22:19.941Z,28.60
2017-06-20T14:24:48.304Z,28.60
2017-06-20T14:27:16.683Z,28.60
2017-06-20T14:29:44.959Z,28.70
2017-06-20T14:32:13.291Z,28.40
2017-06-20T14:34:41.632Z,28.70
2017-06-20T14:37:10.723Z,29.10
2017-06-20T14:39:39.079Z,29.10
2017-06-20T14:42:07.361Z,29.30
2017-06-20T14:44:35.754Z,29.30
2017-06-20T14:47:04.136Z,29.50
2017-06-20T14:49:32.515Z,29.40
2017-06-20T14:52:00.840Z,29.20
2017-06-20T14:54:29.183Z,29.30
2017-06-20T14:56:58.288Z,29.70
2017-06-20T14:59:27.351Z,30.00
2017-06-20T15:01:55.695Z,30.00
2017-06-20T15:04:24.023Z,30.40
2017-06-20T15:06:52.311Z,30.50
2017-06-20T15:09:21.403Z,31.00
2017-06-20T15:11:50.604Z,31.30
2017-06-20T15:14:19.700Z,31.30
2017-06-20T15:16:48.755Z,31.70
2017-06-20T15:19:17.171Z,31.60
2017-06-20T15:21:46.270Z,31.90
2017-06-20T15:24:15.375Z,31.20
2017-06-20T15:26:44.427Z,30.30
2017-06-20T15:29:12.740Z,30.30
2017-06-20T15:31:41.935Z,30.10
2017-06-20T15:34:10.991Z,30.00
2017-06-20T15:36:39.403Z,29.90
2017-06-20T15:39:08.499Z,29.10
2017-06-20T15:41:37.603Z,28.80
2017-06-20T15:44:06.695Z,28.60
2017-06-20T15:46:35.786Z,28.70
2017-06-20T15:49:04.165Z,28.70
2017-06-20T15:51:32.464Z,28.70
2017-06-20T15:54:00.841Z,28.80
2017-06-20T15:56:29.219Z,28.90
2017-06-20T15:58:57.499Z,28.60
2017-06-20T16:01:26.592Z,28.50
2017-06-20T16:03:54.963Z,28.50
2017-06-20T16:06:23.253Z,28.90
2017-06-20T16:08:52.343Z,29.20
2017-06-20T16:11:21.435Z,29.00
2017-06-20T16:13:49.728Z,29.00
2017-06-20T16:16:18.831Z,29.10
2017-06-20T16:18:47.187Z,29.00
2017-06-20T16:21:15.471Z,28.50
2017-06-20T16:23:44.567Z,27.70
2017-06-20T16:26:13.619Z,27.60
2017-06-20T16:28:41.955Z,27.60
2017-06-20T16:31:10.316Z,27.60
2017-06-20T16:33:39.403Z,27.30
2017-06-20T16:36:07.784Z,27.30
2017-06-20T16:38:36.164Z,27.40
2017-06-20T16:41:05.220Z,27.20
2017-06-20T16:43:33.685Z,27.10
2017-06-20T16:46:01.985Z,27.20
2017-06-20T16:48:30.276Z,27.00
2017-06-20T16:51:04.396Z,26.50
2017-06-20T16:53:32.680Z,26.20
2017-06-20T16:56:00.965Z,25.90
2017-06-20T16:58:29.364Z,25.90
2017-06-20T17:00:58.859Z,25.70
2017-06-20T17:03:27.244Z,25.70
2017-06-20T17:05:55.619Z,25.50
2017-06-20T17:08:23.947Z,25.50
2017-06-20T17:10:52.236Z,25.40
2017-06-20T17:13:20.551Z,25.50
2017-06-20T17:15:49.122Z,25.50
2017-06-20T17:18:17.706Z,25.30
2017-06-20T17:20:46.349Z,25.30
2017-06-20T17:23:14.975Z,25.40
2017-06-20T17:25:43.560Z,25.30
2017-06-20T17:28:12.347Z,25.20
2017-06-20T17:30:40.868Z,25.30
2017-06-20T17:33:09.435Z,25.10
2017-06-20T17:35:38.523Z,24.80
2017-06-20T17:38:07.615Z,24.80
2017-06-20T17:40:35.997Z,24.80
2017-06-20T17:43:04.280Z,24.90
2017-06-20T17:45:33.467Z,24.70
2017-06-20T17:48:01.852Z,24.70
2017-06-20T17:50:30.136Z,24.60
2017-06-20T17:52:59.324Z,24.50
2017-06-20T17:55:28.375Z,24.30
2017-06-20T17:57:56.664Z,24.30
2017-06-20T18:00:25.007Z,24.30
2017-06-20T18:02:53.296Z,24.20
2017-06-20T18:05:21.574Z,24.30
2017-06-20T18:07:49.992Z,24.10
2017-06-20T18:10:19.216Z,24.10
2017-06-20T18:12:47.559Z,24.50
2017-06-20T18:18:13.115Z,24.70
2017-06-20T18:20:44.572Z,24.10
2017-06-20T18:23:14.564Z,24.00
2017-06-20T18:25:42.939Z,24.00
2017-06-20T18:28:11.223Z,24.00
2017-06-20T18:30:40.316Z,23.90
2017-06-20T18:33:08.599Z,23.80
2017-06-20T18:35:37.651Z,23.50
2017-06-20T18:38:05.980Z,23.40
2017-06-20T18:40:35.055Z,23.30
2017-06-20T18:43:03.437Z,23.30
2017-06-20T18:45:31.772Z,23.00
2017-06-20T18:48:00.055Z,23.00
2017-06-20T18:50:28.339Z,23.00
2017-06-20T18:52:56.663Z,22.80
2017-06-20T18:55:25.072Z,22.80
2017-06-20T18:57:53.455Z,22.60
2017-06-20T19:00:21.746Z,22.50
2017-06-20T19:02:50.075Z,22.40
2017-06-20T19:05:19.131Z,22.10
2017-06-20T19:07:47.419Z,22.10
2017-06-20T19:10:15.760Z,22.10
2017-06-20T19:12:44.108Z,22.00
2017-06-20T19:15:13.295Z,21.60
2017-06-20T19:17:41.675Z,21.60
2017-06-20T19:20:10.778Z,21.40
2017-06-20T19:22:39.863Z,21.30
2017-06-20T19:25:08.208Z,21.20
2017-06-20T19:27:36.495Z,21.30
2017-06-20T19:30:05.731Z,21.30
2017-06-20T19:32:34.923Z,21.00
2017-06-20T19:35:03.980Z,20.90
2017-06-20T19:37:32.288Z,20.90
2017-06-20T19:40:00.619Z,20.90
2017-06-20T19:42:28.919Z,20.70
2017-06-20T19:44:57.204Z,20.50
2017-06-20T19:47:25.540Z,20.50
2017-06-20T19:49:53.824Z,20.50
2017-06-20T19:52:22.151Z,20.40
2017-06-20T19:54:50.471Z,20.30
2017-06-20T19:57:20.840Z,20.30
2017-06-20T19:59:51.266Z,20.20
2017-06-20T20:02:19.783Z,20.10
2017-06-20T20:04:48.076Z,20.00
2017-06-20T20:07:16.363Z,20.10
2017-06-20T20:09:44.699Z,20.00
2017-06-20T20:12:14.448Z,19.80
2017-06-20T20:14:42.739Z,19.80
2017-06-20T20:17:11.076Z,19.80
2017-06-20T20:19:39.399Z,19.80
2017-06-20T20:22:07.682Z,19.70
2017-06-20T20:24:36.063Z,19.70
2017-06-20T20:27:05.115Z,19.50
2017-06-20T20:29:33.439Z,19.50
2017-06-20T20:32:02.544Z,19.50
2017-06-20T20:34:31.592Z,19.40
2017-06-20T20:36:59.871Z,19.40
2017-06-20T20:39:28.211Z,19.30
2017-06-20T20:41:57.591Z,19.10
2017-06-20T20:44:26.648Z,19.20
2017-06-20T20:46:54.980Z,19.20
2017-06-20T20:49:23.268Z,19.10
2017-06-20T20:51:51.553Z,19.00
2017-06-20T20:54:19.887Z,18.90
2017-06-20T20:56:48.935Z,18.80
2017-06-20T20:59:17.271Z,18.70
2017-06-20T21:01:46.320Z,18.70
2017-06-20T21:04:14.605Z,18.70
2017-06-20T21:06:42.931Z,18.70
2017-06-20T21:09:11.228Z,18.60
2017-06-20T21:11:39.511Z,18.60
2017-06-20T21:14:07.935Z,18.50
2017-06-20T21:16:36.299Z,18.40
2017-06-20T21:19:04.608Z,18.50
2017-06-20T21:21:33.736Z,18.40
2017-06-20T21:24:02.105Z,18.40
2017-06-20T21:26:31.179Z,18.30
2017-06-20T21:28:59.551Z,18.30
2017-06-20T21:31:27.836Z,18.20
2017-06-20T21:33:56.163Z,18.10
2017-06-20T21:36:24.451Z,17.90
2017-06-20T21:38:52.744Z,17.80
2017-06-20T21:41:21.134Z,17.80
2017-06-20T21:43:51.056Z,17.70
2017-06-20T21:46:20.159Z,17.60
2017-06-20T21:48:49.208Z,17.50
2017-06-20T21:51:17.511Z,17.50
2017-06-20T21:53:45.843Z,17.40
2017-06-20T21:56:14.123Z,17.50
2017-06-20T21:58:42.443Z,17.50
2017-06-20T22:01:10.828Z,17.40
2017-06-20T22:03:39.915Z,17.30
2017-06-20T22:06:08.227Z,17.20
2017-06-20T22:08:36.571Z,17.20
2017-06-20T22:11:04.855Z,17.10
2017-06-20T22:13:34.048Z,17.20
2017-06-20T22:16:03.144Z,17.20
2017-06-20T22:18:32.300Z,17.10
2017-06-20T22:21:00.611Z,17.10
2017-06-20T22:23:28.895Z,17.00
2017-06-20T22:25:57.223Z,16.90
2017-06-20T22:28:26.298Z,16.70
2017-06-20T22:31:07.139Z,16.70
2017-06-20T22:33:35.420Z,16.70
2017-06-20T22:38:46.871Z,16.70
2017-06-20T22:41:15.955Z,16.70
2017-06-20T22:43:44.347Z,16.70
2017-06-20T22:46:13.511Z,16.70
2017-06-20T22:48:41.796Z,16.70
2017-06-20T22:51:10.092Z,16.80
2017-06-20T22:53:39.290Z,16.70
2017-06-20T22:56:08.343Z,16.70
2017-06-20T22:58:36.631Z,16.60
2017-06-20T23:01:05.035Z,16.60
2017-06-20T23:03:33.420Z,16.60
2017-06-20T23:06:01.794Z,16.50
2017-06-20T23:08:30.279Z,16.50
2017-06-20T23:10:59.331Z,16.40
2017-06-20T23:13:27.614Z,16.40
2017-06-20T23:15:56.028Z,16.30
2017-06-20T23:18:24.311Z,16.20
2017-06-20T23:20:53.384Z,16.10
2017-06-20T23:23:21.691Z,16.10
2017-06-20T23:25:50.768Z,16.00
2017-06-20T23:28:19.095Z,16.00
2017-06-20T23:30:47.379Z,15.90
2017-06-20T23:33:15.668Z,15.80
2017-06-20T23:35:43.991Z,15.80
2017-06-20T23:38:12.275Z,15.70
2017-06-20T23:40:40.685Z,15.70
2017-06-20T23:43:09.751Z,15.50
2017-06-20T23:45:38.043Z,15.50
2017-06-20T23:48:07.135Z,15.40
2017-06-20T23:50:36.219Z,15.30
2017-06-20T23:53:04.502Z,15.30
2017-06-20T23:55:33.593Z,15.10
2017-06-20T23:58:01.971Z,15.10
